Time;durP1;ratioP1;P1;durP2;ratioP2;P2;SDS_P1;SDS_P2;PMS_P1;PMS_P2;Temp;Humidity;BMP_temperature;BMP_pressure;BME280_temperature;BME280_humidity;BME280_pressure;Samples;Min_cycle;Max_cycle;Signal;HPM_P1;HPM_P2
2022/03/22 00:01:47;;;;;;;12.25;8.55;;;;;;;;;;5087876;28;20037;-57
2022/03/22 00:04:55;;;;;;;10.00;8.77;;;;;;;;;;5060595;28;20560;-57
2022/03/22 00:13:32;;;;;;;14.10;8.68;;;;;;;;;;5088142;28;20043;-58
2022/03/22 00:16:16;;;;;;;12.18;8.30;;;;;;;;;;5088157;28;20032;-56
2022/03/22 00:21:47;;;;;;;12.40;9.23;;;;;;;;;;5067740;28;20220;-56
2022/03/22 00:24:40;;;;;;;15.57;9.85;;;;;;;;;;5068238;28;20060;-58
2022/03/22 00:27:10;;;;;;;13.48;8.98;;;;;;;;;;5067639;28;20033;-56
2022/03/22 00:29:54;;;;;;;18.23;9.80;;;;;;;;;;5067966;28;20028;-56
2022/03/22 00:38:36;;;;;;;11.90;9.52;;;;;;;;;;5053699;28;20123;-58
2022/03/22 00:44:25;;;;;;;11.98;9.25;;;;;;;;;;5039498;28;20036;-57
2022/03/22 00:46:52;;;;;;;15.20;9.32;;;;;;;;;;5066635;28;20028;-57
2022/03/22 00:52:36;;;;;;;9.02;7.57;;;;;;;;;;5085329;28;20036;-57
2022/03/22 00:55:15;;;;;;;11.23;8.77;;;;;;;;;;5109976;28;20032;-55
2022/03/22 00:58:16;;;;;;;13.35;8.95;;;;;;;;;;5089172;28;20051;-56
2022/03/22 01:07:08;;;;;;;14.95;9.27;;;;;;;;;;5027651;28;20041;-57
2022/03/22 01:09:47;;;;;;;;;;;;;;;;;;;;;
2022/03/22 01:12:37;;;;;;;13.20;8.60;;;;;;;;;;5025501;28;20076;-57
2022/03/22 01:18:38;;;;;;;11.23;7.32;;;;;;;;;;5010091;28;20034;-57
2022/03/22 01:24:35;;;;;;;;;;;;;;;;;;;;;
2022/03/22 01:27:13;;;;;;;10.38;8.40;;;;;;;;;;5106405;28;20056;-57
2022/03/22 01:33:18;;;;;;;;;;;;;;;;;;;;;
2022/03/22 01:36:00;;;;;;;13.05;8.40;;;;;;;;;;5080433;28;20059;-56
2022/03/22 01:42:21;;;;;;;;;;;;;;;;;;;;;
2022/03/22 01:45:13;;;;;;;11.05;8.45;;;;;;;;;;5102906;28;20059;-58
2022/03/22 01:54:24;;;;;;;11.13;9.07;;;;;;;;;;5042672;28;20037;-57
2022/03/22 01:57:18;;;;;;;12.15;8.75;;;;;;;;;;4999837;28;20101;-57
2022/03/22 01:59:53;;;;;;;11.02;7.78;;;;;;;;;;5050739;28;20040;-57
2022/03/22 02:08:28;;;;;;;;;;;;;;;;;;;;;
2022/03/22 02:12:04;;;;;;;11.98;8.80;;;;;;;;;;5086388;28;20052;-54
2022/03/22 02:13:56;;;;;;;13.57;8.30;;;;;;;;;;5073577;28;20043;-57
2022/03/22 02:16:46;;;;;;;11.68;8.55;;;;;;;;;;5074658;28;20041;-57
2022/03/22 02:19:47;;;;;;;9.55;7.43;;;;;;;;;;5091627;28;20151;-57
2022/03/22 02:22:45;;;;;;;13.07;8.27;;;;;;;;;;5092088;28;20070;-56
2022/03/22 02:28:38;;;;;;;13.77;10.23;;;;;;;;;;5030189;28;20037;-57
2022/03/22 02:34:15;;;;;;;15.45;9.57;;;;;;;;;;5050650;28;20037;-58
2022/03/22 02:39:35;;;;;;;12.45;9.75;;;;;;;;;;5069780;28;20101;-57
2022/03/22 02:42:11;;;;;;;15.43;10.23;;;;;;;;;;5070073;28;20124;-57
2022/03/22 02:44:58;;;;;;;13.32;9.65;;;;;;;;;;5052985;28;20045;-56
2022/03/22 02:47:47;;;;;;;13.30;9.32;;;;;;;;;;5069699;28;20483;-56
2022/03/22 02:53:30;;;;;;;16.33;9.77;;;;;;;;;;5087747;28;20048;-57
2022/03/22 02:56:33;;;;;;;15.85;10.60;;;;;;;;;;5089791;28;20028;-58
2022/03/22 02:59:33;;;;;;;;;;;;;;;;;;;;;
2022/03/22 03:02:22;;;;;;;14.13;9.73;;;;;;;;;;5022547;28;20056;-56
2022/03/22 03:05:37;;;;;;;21.10;10.43;;;;;;;;;;5094164;28;20043;-57
2022/03/22 03:12:02;;;;;;;13.27;9.82;;;;;;;;;;5066731;28;20050;-56
2022/03/22 03:14:54;;;;;;;;;;;;;;;;;;;;;
2022/03/22 03:17:42;;;;;;;16.55;11.82;;;;;;;;;;5107249;28;20070;-57
2022/03/22 03:33:03;;;;;;;14.98;9.82;;;;;;;;;;5029040;28;20038;-57
2022/03/22 03:38:44;;;;;;;15.27;10.15;;;;;;;;;;5037828;28;20040;-57
2022/03/22 03:49:46;;;;;;;17.17;10.85;;;;;;;;;;5047988;28;20073;-57
2022/03/22 03:52:16;;;;;;;15.10;10.93;;;;;;;;;;5048460;28;20030;-56
2022/03/22 03:55:08;;;;;;;13.55;9.90;;;;;;;;;;5048612;28;20057;-57
2022/03/22 03:57:44;;;;;;;14.82;11.90;;;;;;;;;;5099606;28;20496;-57
2022/03/22 04:06:44;;;;;;;11.95;9.68;;;;;;;;;;5109988;28;20036;-57
2022/03/22 04:09:36;;;;;;;15.98;10.20;;;;;;;;;;5110607;28;20030;-56
2022/03/22 04:12:19;;;;;;;11.88;9.02;;;;;;;;;;5087854;28;20092;-57
2022/03/22 04:15:00;;;;;;;13.35;9.55;;;;;;;;;;5088240;28;20051;-57
2022/03/22 04:17:39;;;;;;;14.25;10.45;;;;;;;;;;5088093;28;20055;-57
2022/03/22 04:26:55;;;;;;;;;;;;;;;;;;;;;
2022/03/22 04:35:34;;;;;;;15.25;10.95;;;;;;;;;;5052867;28;20067;-56
2022/03/22 04:38:31;;;;;;;;;;;;;;;;;;;;;
2022/03/22 04:43:58;;;;;;;16.27;9.93;;;;;;;;;;5090356;28;20432;-57
2022/03/22 04:46:53;;;;;;;16.17;10.82;;;;;;;;;;5101358;28;20040;-57
2022/03/22 04:58:54;;;;;;;;;;;;;;;;;;;;;
2022/03/22 05:01:32;;;;;;;13.57;11.50;;;;;;;;;;5095007;28;20366;-57
2022/03/22 05:04:32;;;;;;;15.23;10.93;;;;;;;;;;5094907;28;20035;-57
2022/03/22 05:07:09;;;;;;;11.20;9.73;;;;;;;;;;5076712;28;20066;-57
2022/03/22 05:09:57;;;;;;;16.95;11.57;;;;;;;;;;5076592;28;20059;-57
2022/03/22 05:12:43;;;;;;;13.85;11.35;;;;;;;;;;5083601;28;20523;-55
2022/03/22 05:18:58;;;;;;;;;;;;;;;;;;;;;
2022/03/22 05:21:26;;;;;;;13.47;10.17;;;;;;;;;;5048493;28;20491;-57
2022/03/22 05:24:33;;;;;;;;;;;;;;;;;;;;;
2022/03/22 05:27:31;;;;;;;;;;;;;;;;;;;;;
2022/03/22 05:30:21;;;;;;;13.77;11.15;;;;;;;;;;5078358;28;20478;-56
2022/03/22 05:33:20;;;;;;;;;;;;;;;;;;;;;
2022/03/22 05:42:07;;;;;;;17.20;11.53;;;;;;;;;;5084068;28;20043;-57
2022/03/22 05:45:12;;;;;;;12.93;10.48;;;;;;;;;;5098962;28;20077;-57
2022/03/22 05:50:28;;;;;;;12.93;10.15;;;;;;;;;;5097744;28;20077;-57
2022/03/22 05:53:17;;;;;;;13.57;12.17;;;;;;;;;;5097010;28;20040;-56
2022/03/22 05:56:13;;;;;;;14.30;10.88;;;;;;;;;;5080285;28;20035;-57
2022/03/22 05:59:00;;;;;;;14.37;10.97;;;;;;;;;;5092195;28;20036;-57
2022/03/22 06:01:32;;;;;;;13.52;10.00;;;;;;;;;;5097732;28;20103;-54
2022/03/22 06:04:29;;;;;;;14.23;10.87;;;;;;;;;;5097948;28;20040;-55
2022/03/22 06:09:54;;;;;;;17.58;11.13;;;;;;;;;;5089270;28;20032;-57
2022/03/22 06:12:29;;;;;;;15.43;10.52;;;;;;;;;;5090660;28;20485;-57
2022/03/22 06:18:03;;;;;;;14.90;10.43;;;;;;;;;;5097595;28;20038;-56
2022/03/22 06:20:41;;;;;;;16.88;11.38;;;;;;;;;;5098031;28;20048;-57
2022/03/22 06:23:27;;;;;;;;;;;;;;;;;;;;;
2022/03/22 06:26:20;;;;;;;13.63;9.65;;;;;;;;;;5066424;28;20050;-56
2022/03/22 06:29:02;;;;;;;;;;;;;;;;;;;;;
2022/03/22 06:39:01;;;;;;;13.65;10.00;;;;;;;;;;5096677;28;20036;-57
2022/03/22 06:40:58;;;;;;;13.88;11.57;;;;;;;;;;5081133;28;20394;-58
2022/03/22 06:46:26;;;;;;;15.05;10.82;;;;;;;;;;5097454;28;20047;-56
2022/03/22 06:49:23;;;;;;;15.15;11.15;;;;;;;;;;5097429;28;20461;-57
2022/03/22 06:52:14;;;;;;;15.57;10.95;;;;;;;;;;5036178;28;20051;-58
2022/03/22 06:55:08;;;;;;;16.23;11.02;;;;;;;;;;5054656;28;20041;-58
2022/03/22 06:57:51;;;;;;;12.85;9.57;;;;;;;;;;5037732;28;20098;-58
2022/03/22 07:06:58;;;;;;;14.52;10.77;;;;;;;;;;5098101;28;20074;-58
2022/03/22 07:09:33;;;;;;;16.23;11.85;;;;;;;;;;5061207;28;20039;-57
2022/03/22 07:12:08;;;;;;;16.90;10.40;;;;;;;;;;5073652;28;20483;-58
2022/03/22 07:15:15;;;;;;;13.93;9.98;;;;;;;;;;5056562;28;20517;-58
2022/03/22 07:17:53;;;;;;;13.60;9.40;;;;;;;;;;5045620;28;20179;-58
2022/03/22 07:23:44;;;;;;;20.35;12.75;;;;;;;;;;5070456;28;20039;-57
2022/03/22 07:26:28;;;;;;;13.27;11.65;;;;;;;;;;5074136;28;20460;-58
2022/03/22 07:29:17;;;;;;;14.45;10.50;;;;;;;;;;5073690;28;20025;-58
2022/03/22 07:35:30;;;;;;;16.83;11.40;;;;;;;;;;5069292;28;20571;-58
2022/03/22 07:41:03;;;;;;;15.63;11.80;;;;;;;;;;5050571;28;20036;-58
2022/03/22 07:43:54;;;;;;;17.58;11.38;;;;;;;;;;5088884;28;20032;-58
2022/03/22 07:55:55;;;;;;;17.63;12.07;;;;;;;;;;5053422;28;20099;-58
2022/03/22 07:58:50;;;;;;;17.23;11.63;;;;;;;;;;4974215;28;20059;-58
2022/03/22 08:04:49;;;;;;;16.60;12.50;;;;;;;;;;4966409;28;20121;-57
2022/03/22 08:13:48;;;;;;;14.73;11.45;;;;;;;;;;5016822;28;20509;-58
2022/03/22 08:16:40;;;;;;;13.18;11.23;;;;;;;;;;5074807;28;20035;-58
2022/03/22 08:19:28;;;;;;;;;;;;;;;;;;;;;
2022/03/22 08:28:17;;;;;;;19.42;11.77;;;;;;;;;;5060625;28;20111;-58
2022/03/22 08:34:10;;;;;;;15.48;12.25;;;;;;;;;;5074764;28;20039;-58
2022/03/22 08:46:29;;;;;;;19.45;11.88;;;;;;;;;;5048062;28;20458;-60
2022/03/22 08:49:33;;;;;;;14.02;11.07;;;;;;;;;;5074495;28;20382;-59
2022/03/22 08:52:03;;;;;;;14.18;12.60;;;;;;;;;;5034538;28;20055;-60
2022/03/22 08:55:02;;;;;;;16.83;13.25;;;;;;;;;;5071200;28;20048;-60
2022/03/22 08:57:49;;;;;;;14.18;10.80;;;;;;;;;;5062271;28;20040;-60
2022/03/22 09:00:35;;;;;;;15.10;11.02;;;;;;;;;;5075914;28;20473;-59
2022/03/22 09:03:37;;;;;;;;;;;;;;;;;;;;;
2022/03/22 09:09:10;;;;;;;19.17;11.82;;;;;;;;;;5094785;28;20071;-59
2022/03/22 09:12:14;;;;;;;16.35;13.05;;;;;;;;;;5093878;28;20489;-59
2022/03/22 09:14:57;;;;;;;;;;;;;;;;;;;;;
2022/03/22 09:17:36;;;;;;;;;;;;;;;;;;;;;
2022/03/22 09:20:23;;;;;;;16.90;13.63;;;;;;;;;;5078275;28;20043;-59
2022/03/22 09:23:11;;;;;;;15.05;13.27;;;;;;;;;;5072522;28;20071;-60
2022/03/22 09:25:47;;;;;;;15.75;11.63;;;;;;;;;;5093622;28;20032;-59
2022/03/22 09:28:20;;;;;;;16.45;13.45;;;;;;;;;;5094376;28;20477;-59
2022/03/22 09:33:51;;;;;;;13.63;11.25;;;;;;;;;;5086970;28;20043;-59
2022/03/22 09:39:37;;;;;;;14.60;11.48;;;;;;;;;;5093738;28;20027;-58
2022/03/22 09:45:46;;;;;;;;;;;;;;;;;;;;;
2022/03/22 09:57:55;;;;;;;;;;;;;;;;;;;;;
2022/03/22 10:00:39;;;;;;;15.80;11.65;;;;;;;;;;5067804;28;20032;-58
2022/03/22 10:03:48;;;;;;;15.95;13.30;;;;;;;;;;5055473;28;20033;-58
2022/03/22 10:06:38;;;;;;;16.90;12.27;;;;;;;;;;4972616;28;20039;-59
2022/03/22 10:09:28;;;;;;;15.20;12.13;;;;;;;;;;5073305;28;20386;-59
2022/03/22 10:12:13;;;;;;;15.60;12.30;;;;;;;;;;5053349;28;20025;-59
2022/03/22 10:14:48;;;;;;;14.77;11.55;;;;;;;;;;5054797;28;20041;-59
2022/03/22 10:17:41;;;;;;;14.25;11.38;;;;;;;;;;5055551;28;20067;-59
2022/03/22 10:26:53;;;;;;;15.30;11.65;;;;;;;;;;5009822;28;20073;-59
2022/03/22 10:29:27;;;;;;;17.05;12.05;;;;;;;;;;5054423;28;20028;-59
2022/03/22 10:32:14;;;;;;;13.85;12.18;;;;;;;;;;5055657;28;20041;-58
2022/03/22 10:35:06;;;;;;;14.77;11.52;;;;;;;;;;5038126;28;20562;-59
2022/03/22 10:37:56;;;;;;;17.45;12.95;;;;;;;;;;5070389;28;20521;-59
2022/03/22 10:43:56;;;;;;;16.23;12.30;;;;;;;;;;5077560;28;20115;-59
2022/03/22 10:46:42;;;;;;;17.23;13.23;;;;;;;;;;4972571;28;20650;-59
2022/03/22 10:49:52;;;;;;;13.95;12.55;;;;;;;;;;5000407;28;20535;-59
2022/03/22 10:52:50;;;;;;;17.88;13.27;;;;;;;;;;4972866;28;20053;-58
2022/03/22 10:58:30;;;;;;;;;;;;;;;;;;;;;
2022/03/22 11:01:07;;;;;;;13.93;11.73;;;;;;;;;;5067198;28;20096;-59
2022/03/22 11:03:52;;;;;;;14.38;11.55;;;;;;;;;;5096776;28;20509;-59
2022/03/22 11:06:50;;;;;;;14.93;11.82;;;;;;;;;;5097167;28;20024;-59
2022/03/22 11:09:30;;;;;;;15.65;12.48;;;;;;;;;;5081731;28;20036;-59
2022/03/22 11:12:28;;;;;;;14.63;13.02;;;;;;;;;;5096949;28;20050;-59
2022/03/22 11:15:10;;;;;;;19.10;12.73;;;;;;;;;;5097189;28;20046;-59
2022/03/22 11:21:10;;;;;;;15.80;13.98;;;;;;;;;;5085735;28;20051;-59
2022/03/22 11:23:42;;;;;;;16.13;12.30;;;;;;;;;;5075531;28;20484;-57
2022/03/22 11:26:46;;;;;;;16.33;12.45;;;;;;;;;;5061622;28;20020;-58
2022/03/22 11:29:40;;;;;;;21.42;14.35;;;;;;;;;;5090447;28;20040;-58
2022/03/22 11:47:20;;;;;;;16.77;12.45;;;;;;;;;;5071216;28;20085;-56
2022/03/22 11:50:13;;;;;;;15.52;12.70;;;;;;;;;;5076241;28;20028;-57
2022/03/22 11:53:08;;;;;;;16.45;12.63;;;;;;;;;;5076662;28;20543;-57
2022/03/22 11:56:01;;;;;;;18.08;11.75;;;;;;;;;;5076595;28;20036;-55
2022/03/22 11:58:48;;;;;;;15.82;12.20;;;;;;;;;;5090003;28;20389;-57
2022/03/22 12:01:38;;;;;;;20.48;12.32;;;;;;;;;;5077171;28;20047;-57
2022/03/22 12:04:30;;;;;;;17.33;12.85;;;;;;;;;;5095042;28;20036;-57
2022/03/22 12:07:09;;;;;;;16.02;13.57;;;;;;;;;;5057984;28;20051;-57
2022/03/22 12:10:04;;;;;;;;;;;;;;;;;;;;;
2022/03/22 12:13:14;;;;;;;;;;;;;;;;;;;;;
2022/03/22 12:15:47;;;;;;;22.25;14.35;;;;;;;;;;5092153;28;20459;-56
2022/03/22 12:18:49;;;;;;;17.25;12.00;;;;;;;;;;5095140;28;20035;-56
2022/03/22 12:21:52;;;;;;;18.42;12.10;;;;;;;;;;5094860;28;20017;-58
2022/03/22 12:24:30;;;;;;;;;;;;;;;;;;;;;
2022/03/22 12:27:12;;;;;;;17.30;13.45;;;;;;;;;;5054689;28;20024;-57
2022/03/22 12:30:08;;;;;;;;;;;;;;;;;;;;;
2022/03/22 12:32:56;;;;;;;19.55;13.98;;;;;;;;;;5091058;28;20035;-57
2022/03/22 12:35:59;;;;;;;16.67;13.15;;;;;;;;;;5095778;28;20450;-57
2022/03/22 12:38:34;;;;;;;18.20;13.57;;;;;;;;;;5094650;28;20055;-57
2022/03/22 12:44:31;;;;;;;;;;;;;;;;;;;;;
2022/03/22 12:47:22;;;;;;;20.23;14.15;;;;;;;;;;5032634;28;20029;-57
2022/03/22 12:50:07;;;;;;;17.50;11.60;;;;;;;;;;5078270;28;20089;-57
2022/03/22 12:58:51;;;;;;;;;;;;;;;;;;;;;
2022/03/22 13:01:40;;;;;;;16.48;12.45;;;;;;;;;;5058507;28;20040;-57
2022/03/22 13:04:46;;;;;;;16.48;12.57;;;;;;;;;;5095642;28;20518;-57
2022/03/22 13:07:35;;;;;;;21.48;14.32;;;;;;;;;;5077220;28;20039;-57
2022/03/22 13:16:24;;;;;;;22.67;12.90;;;;;;;;;;5043900;28;20128;-57
2022/03/22 13:19:07;;;;;;;20.80;13.80;;;;;;;;;;5093817;28;20089;-57
2022/03/22 13:21:55;;;;;;;20.02;13.73;;;;;;;;;;5076286;28;20350;-57
2022/03/22 13:24:41;;;;;;;16.45;12.43;;;;;;;;;;5095052;28;20440;-57
2022/03/22 13:30:33;;;;;;;19.50;13.52;;;;;;;;;;5095016;28;20466;-57
2022/03/22 13:33:18;;;;;;;21.25;13.75;;;;;;;;;;5095299;28;20043;-57
2022/03/22 13:36:22;;;;;;;19.40;13.45;;;;;;;;;;5071690;28;20490;-57
2022/03/22 13:39:03;;;;;;;16.15;12.52;;;;;;;;;;5071917;28;20031;-57
2022/03/22 13:41:50;;;;;;;13.68;12.23;;;;;;;;;;5032179;28;20064;-57
2022/03/22 14:00:14;;;;;;;21.65;12.52;;;;;;;;;;5034909;28;20036;-57
2022/03/22 14:03:11;;;;;;;18.40;13.90;;;;;;;;;;5035262;28;20048;-57
2022/03/22 14:05:44;;;;;;;17.33;11.65;;;;;;;;;;5035026;28;20124;-57
2022/03/22 14:08:39;;;;;;;13.75;11.40;;;;;;;;;;5035705;28;20495;-57
2022/03/22 14:11:36;;;;;;;14.95;11.88;;;;;;;;;;5000133;28;20065;-57
2022/03/22 14:17:26;;;;;;;20.33;13.43;;;;;;;;;;5097540;28;20032;-57
2022/03/22 14:20:30;;;;;;;17.65;13.45;;;;;;;;;;5097953;28;20354;-57
2022/03/22 14:26:21;;;;;;;13.88;12.30;;;;;;;;;;5040658;28;20017;-57
2022/03/22 14:32:11;;;;;;;16.65;11.48;;;;;;;;;;5096999;28;20020;-57
2022/03/22 14:37:41;;;;;;;18.95;12.60;;;;;;;;;;5097107;28;20097;-57
2022/03/22 14:40:10;;;;;;;16.45;12.55;;;;;;;;;;5097408;28;20370;-56
2022/03/22 14:42:56;;;;;;;18.60;13.10;;;;;;;;;;5096755;28;20032;-58
2022/03/22 14:45:50;;;;;;;16.75;12.65;;;;;;;;;;5097267;28;20035;-57
2022/03/22 14:48:39;;;;;;;14.57;11.77;;;;;;;;;;5096938;28;20036;-56
2022/03/22 14:51:05;;;;;;;18.45;13.13;;;;;;;;;;5085339;28;20032;-56
2022/03/22 15:03:18;;;;;;;12.65;10.57;;;;;;;;;;5076284;28;20035;-57
2022/03/22 15:06:14;;;;;;;15.40;12.15;;;;;;;;;;5035847;28;20123;-58
2022/03/22 15:09:18;;;;;;;14.35;11.43;;;;;;;;;;5074108;28;20078;-58
2022/03/22 15:18:19;;;;;;;13.82;10.88;;;;;;;;;;5076451;28;20497;-58
2022/03/22 15:24:09;;;;;;;14.82;11.82;;;;;;;;;;5068144;28;20036;-58
2022/03/22 15:26:49;;;;;;;13.27;11.23;;;;;;;;;;5070536;28;20033;-58
2022/03/22 15:29:20;;;;;;;13.45;11.35;;;;;;;;;;5055043;28;20029;-57
2022/03/22 15:32:13;;;;;;;16.48;11.95;;;;;;;;;;5055667;28;20056;-58
2022/03/22 15:34:53;;;;;;;14.75;12.15;;;;;;;;;;5075655;28;20032;-58
2022/03/22 15:37:24;;;;;;;15.10;12.13;;;;;;;;;;5076590;28;20032;-57
2022/03/22 15:46:25;;;;;;;15.93;10.82;;;;;;;;;;5013991;28;20038;-58
2022/03/22 15:48:54;;;;;;;13.50;11.80;;;;;;;;;;5013944;28;20477;-58
2022/03/22 15:51:23;;;;;;;14.30;12.02;;;;;;;;;;5061487;28;20043;-58
2022/03/22 15:54:08;;;;;;;15.77;11.93;;;;;;;;;;5052494;28;20359;-57
2022/03/22 15:56:50;;;;;;;;;;;;;;;;;;;;;
2022/03/22 15:59:32;;;;;;;17.98;12.13;;;;;;;;;;5075712;28;20146;-57
2022/03/22 16:02:13;;;;;;;14.13;11.73;;;;;;;;;;5075914;28;20028;-58
2022/03/22 16:05:09;;;;;;;14.90;12.55;;;;;;;;;;5070617;28;20387;-57
2022/03/22 16:10:51;;;;;;;17.15;13.32;;;;;;;;;;5064031;28;20082;-57
2022/03/22 16:16:57;;;;;;;13.65;11.25;;;;;;;;;;4979827;28;20038;-57
2022/03/22 16:19:52;;;;;;;15.23;13.10;;;;;;;;;;5010038;28;20105;-58
2022/03/22 16:22:43;;;;;;;16.60;12.75;;;;;;;;;;5074373;28;20025;-57
2022/03/22 16:25:35;;;;;;;;;;;;;;;;;;;;;
2022/03/22 16:28:14;;;;;;;16.20;10.65;;;;;;;;;;5074749;28;20035;-58
2022/03/22 16:37:02;;;;;;;12.00;10.32;;;;;;;;;;5074413;28;19910;-57
2022/03/22 16:40:00;;;;;;;12.75;11.27;;;;;;;;;;5074493;28;20039;-57
2022/03/22 16:45:45;;;;;;;16.23;11.75;;;;;;;;;;5075093;28;20037;-57
2022/03/22 16:48:30;;;;;;;16.17;12.05;;;;;;;;;;5074855;28;20039;-58
2022/03/22 16:51:08;;;;;;;16.70;13.05;;;;;;;;;;5073481;28;20032;-58
2022/03/22 16:56:39;;;;;;;16.40;11.52;;;;;;;;;;5011599;28;20077;-58
2022/03/22 16:59:14;;;;;;;16.13;12.68;;;;;;;;;;5012252;28;20053;-57
2022/03/22 17:02:08;;;;;;;15.77;11.23;;;;;;;;;;5058129;28;20039;-57
2022/03/22 17:04:56;;;;;;;15.65;12.02;;;;;;;;;;5056174;28;20551;-57
2022/03/22 17:07:36;;;;;;;14.15;12.38;;;;;;;;;;5055907;28;20509;-57
2022/03/22 17:10:35;;;;;;;17.05;12.63;;;;;;;;;;5073177;28;20041;-57
2022/03/22 17:16:40;;;;;;;15.98;13.18;;;;;;;;;;5055688;28;20150;-56
2022/03/22 17:19:29;;;;;;;15.52;12.32;;;;;;;;;;5074173;28;20413;-55
2022/03/22 17:25:26;;;;;;;14.27;12.02;;;;;;;;;;5029329;28;20031;-57
2022/03/22 17:29:02;;;;;;;17.52;12.25;;;;;;;;;;5074549;28;20078;-56
2022/03/22 17:31:25;;;;;;;16.13;12.18;;;;;;;;;;5062200;28;20470;-57
2022/03/22 17:34:04;;;;;;;16.42;12.20;;;;;;;;;;5072959;28;20037;-57
2022/03/22 17:36:52;;;;;;;14.82;12.68;;;;;;;;;;5074053;28;20374;-57
2022/03/22 17:39:36;;;;;;;16.27;12.38;;;;;;;;;;5074645;28;20039;-57
2022/03/22 17:45:22;;;;;;;16.65;12.63;;;;;;;;;;5060361;28;20479;-57
2022/03/22 17:48:11;;;;;;;16.45;13.05;;;;;;;;;;5048620;28;20032;-57
2022/03/22 17:50:56;;;;;;;18.40;13.68;;;;;;;;;;5063129;28;20036;-57
2022/03/22 17:53:29;;;;;;;18.05;12.65;;;;;;;;;;5071977;28;20544;-58
2022/03/22 17:56:29;;;;;;;21.42;14.95;;;;;;;;;;5090857;28;20055;-57
2022/03/22 17:59:14;;;;;;;14.30;12.02;;;;;;;;;;5094705;28;20446;-58
2022/03/22 18:01:55;;;;;;;19.35;12.18;;;;;;;;;;5094023;28;20032;-57
2022/03/22 18:04:33;;;;;;;14.05;12.55;;;;;;;;;;5093427;28;20470;-57
2022/03/22 18:07:07;;;;;;;13.80;12.15;;;;;;;;;;5094056;28;20020;-58
2022/03/22 18:12:51;;;;;;;21.60;15.63;;;;;;;;;;5032077;28;20060;-58
2022/03/22 18:18:50;;;;;;;16.67;14.48;;;;;;;;;;5091610;28;20437;-57
2022/03/22 18:24:21;;;;;;;15.52;13.63;;;;;;;;;;5038292;28;20127;-57
2022/03/22 18:27:07;;;;;;;18.98;12.25;;;;;;;;;;5061810;28;20032;-57
2022/03/22 18:29:42;;;;;;;19.30;13.10;;;;;;;;;;5070559;28;20033;-57
2022/03/22 18:32:53;;;;;;;;;;;;;;;;;;;;;
2022/03/22 18:38:54;;;;;;;;;;;;;;;;;;;;;
2022/03/22 18:41:43;;;;;;;15.07;13.05;;;;;;;;;;5029165;28;20041;-58
2022/03/22 18:47:32;;;;;;;24.08;13.80;;;;;;;;;;5074185;28;20394;-58
2022/03/22 18:50:04;;;;;;;19.85;13.30;;;;;;;;;;5077551;28;20028;-58
2022/03/22 18:52:41;;;;;;;19.33;13.98;;;;;;;;;;5095975;28;20032;-57
2022/03/22 18:55:38;;;;;;;16.40;13.70;;;;;;;;;;5096209;28;20048;-58
2022/03/22 18:58:37;;;;;;;;;;;;;;;;;;;;;
2022/03/22 19:01:16;;;;;;;17.50;14.38;;;;;;;;;;5093910;28;20036;-58
2022/03/22 19:04:01;;;;;;;16.42;13.00;;;;;;;;;;5097324;28;20039;-58
2022/03/22 19:06:51;;;;;;;21.42;14.93;;;;;;;;;;5096795;28;20035;-58
2022/03/22 19:09:23;;;;;;;17.40;15.07;;;;;;;;;;5075875;28;20036;-58
2022/03/22 19:12:24;;;;;;;19.13;14.23;;;;;;;;;;5096415;28;20036;-58
2022/03/22 19:15:15;;;;;;;21.95;12.55;;;;;;;;;;5055353;28;20037;-57
2022/03/22 19:21:03;;;;;;;22.23;14.95;;;;;;;;;;5096581;28;20032;-58
2022/03/22 19:23:52;;;;;;;17.10;13.85;;;;;;;;;;5077460;28;20066;-58
2022/03/22 19:38:01;;;;;;;17.02;13.07;;;;;;;;;;5085078;28;20105;-58
2022/03/22 19:41:03;;;;;;;18.58;14.43;;;;;;;;;;5061079;28;20028;-58
2022/03/22 19:47:00;;;;;;;13.68;10.65;;;;;;;;;;5095976;28;20470;-57
2022/03/22 19:50:05;;;;;;;;;;;;;;;;;;;;;
2022/03/22 19:52:52;;;;;;;13.07;9.57;;;;;;;;;;5081177;28;20123;-58
2022/03/22 19:55:46;;;;;;;12.25;9.15;;;;;;;;;;5076390;28;20490;-58
2022/03/22 20:01:12;;;;;;;11.95;8.10;;;;;;;;;;5095732;28;20038;-58
2022/03/22 20:03:38;;;;;;;15.75;8.80;;;;;;;;;;5079109;28;20039;-58
2022/03/22 20:06:29;;;;;;;11.85;9.20;;;;;;;;;;5076707;28;20081;-58
2022/03/22 20:09:02;;;;;;;13.25;10.60;;;;;;;;;;5090565;28;20554;-58
2022/03/22 20:14:45;;;;;;;14.32;10.20;;;;;;;;;;5041144;28;20151;-58
2022/03/22 20:26:19;;;;;;;9.77;7.90;;;;;;;;;;5095437;28;20035;-58
2022/03/22 20:29:14;;;;;;;8.38;7.47;;;;;;;;;;5025084;28;20051;-58
2022/03/22 20:32:15;;;;;;;;;;;;;;;;;;;;;
2022/03/22 20:37:59;;;;;;;11.90;8.35;;;;;;;;;;5089520;28;20036;-58
2022/03/22 20:40:28;;;;;;;10.75;7.35;;;;;;;;;;5066058;28;20542;-58
2022/03/22 20:43:30;;;;;;;8.23;6.63;;;;;;;;;;5094963;28;20469;-58
2022/03/22 20:46:21;;;;;;;9.75;7.72;;;;;;;;;;5062306;28;20031;-58
2022/03/22 20:49:18;;;;;;;9.68;5.82;;;;;;;;;;5095159;28;20035;-58
2022/03/22 20:51:51;;;;;;;12.48;6.70;;;;;;;;;;5094561;28;20082;-58
2022/03/22 20:54:50;;;;;;;11.73;6.93;;;;;;;;;;5093624;28;20377;-58
2022/03/22 21:03:34;;;;;;;7.60;6.25;;;;;;;;;;5073990;28;20171;-58
2022/03/22 21:12:14;;;;;;;7.22;6.32;;;;;;;;;;5074477;28;20445;-58
2022/03/22 21:14:50;;;;;;;9.82;7.57;;;;;;;;;;5074337;28;20478;-58
2022/03/22 21:23:54;;;;;;;9.70;7.03;;;;;;;;;;4916911;29;20032;-58
2022/03/22 21:35:10;;;;;;;10.20;7.30;;;;;;;;;;5038291;28;20041;-57
2022/03/22 21:38:02;;;;;;;9.27;7.05;;;;;;;;;;5057429;28;20032;-58
2022/03/22 21:40:30;;;;;;;7.47;6.55;;;;;;;;;;5073733;28;20044;-57
2022/03/22 21:46:06;;;;;;;9.00;6.55;;;;;;;;;;5074294;28;20037;-57
2022/03/22 21:54:59;;;;;;;9.73;7.70;;;;;;;;;;5043958;28;20067;-58
2022/03/22 22:03:57;;;;;;;9.43;7.57;;;;;;;;;;5088222;28;20062;-58
2022/03/22 22:09:57;;;;;;;7.68;6.30;;;;;;;;;;5009530;28;20038;-58
2022/03/22 22:12:38;;;;;;;8.88;6.15;;;;;;;;;;5010564;28;20038;-58
2022/03/22 22:15:22;;;;;;;9.45;7.25;;;;;;;;;;5010978;28;20030;-58
2022/03/22 22:17:53;;;;;;;8.45;7.57;;;;;;;;;;5010559;28;20135;-58
2022/03/22 22:20:48;;;;;;;;;;;;;;;;;;;;;
2022/03/22 22:23:38;;;;;;;8.77;6.78;;;;;;;;;;4975182;28;20056;-58
2022/03/22 22:29:16;;;;;;;8.35;6.95;;;;;;;;;;5091139;28;20035;-58
2022/03/22 22:35:11;;;;;;;;;;;;;;;;;;;;;
2022/03/22 22:37:38;;;;;;;12.75;7.72;;;;;;;;;;5057794;28;20052;-58
2022/03/22 22:40:36;;;;;;;9.57;6.57;;;;;;;;;;5069826;28;20029;-58
2022/03/22 22:45:54;;;;;;;10.57;6.43;;;;;;;;;;5069804;28;20055;-58
2022/03/22 22:48:54;;;;;;;10.02;6.68;;;;;;;;;;5069170;28;20055;-58
2022/03/22 22:51:55;;;;;;;12.65;6.55;;;;;;;;;;5068838;28;20055;-58
2022/03/22 22:57:36;;;;;;;14.95;6.47;;;;;;;;;;5087171;28;20078;-58
2022/03/22 23:10:09;;;;;;;7.18;5.90;;;;;;;;;;5066012;28;20109;-58
2022/03/22 23:12:17;;;;;;;6.15;5.13;;;;;;;;;;5048323;28;20037;-58
2022/03/22 23:18:12;;;;;;;8.70;5.65;;;;;;;;;;5066231;28;20037;-56
2022/03/22 23:23:59;;;;;;;9.20;5.82;;;;;;;;;;5109236;28;20054;-57
2022/03/22 23:29:38;;;;;;;6.82;5.97;;;;;;;;;;5072266;28;20032;-57
2022/03/22 23:32:13;;;;;;;7.72;5.53;;;;;;;;;;5111199;28;20042;-57
2022/03/22 23:34:45;;;;;;;8.32;5.40;;;;;;;;;;5110631;28;20024;-57
2022/03/22 23:37:38;;;;;;;8.10;6.25;;;;;;;;;;5092500;28;20031;-58
2022/03/22 23:40:20;;;;;;;9.90;5.40;;;;;;;;;;5092208;28;20036;-58
2022/03/22 23:46:20;;;;;;;7.50;5.50;;;;;;;;;;5110208;28;20063;-57
2022/03/22 23:49:16;;;;;;;8.95;5.68;;;;;;;;;;5109418;28;20024;-57
2022/03/22 23:52:04;;;;;;;9.95;6.70;;;;;;;;;;5110279;28;20059;-58
2022/03/22 23:54:45;;;;;;;8.85;6.43;;;;;;;;;;5110444;28;20047;-57
2022/03/22 23:57:43;;;;;;;;;;;;;;;;;;;;;
